sensor_id;sensor_type;location;lat;lon;timestamp;pressure;altitude;pressure_sealevel;temperature;humidity
62712;BME280;48772;55.586;37.730;2023-06-04T00:00:55;99469.63;;;7.34;100.00
62712;BME280;48772;55.586;37.730;2023-06-04T00:03:23;99452.84;;;7.21;100.00
62712;BME280;48772;55.586;37.730;2023-06-04T00:05:49;99474.06;;;7.34;100.00
62712;BME280;48772;55.586;37.730;2023-06-04T00:08:14;99475.03;;;7.33;100.00
62712;BME280;48772;55.586;37.730;2023-06-04T00:10:40;99478.88;;;7.29;100.00
62712;BME280;48772;55.586;37.730;2023-06-04T00:13:06;99466.34;;;7.18;100.00
62712;BME280;48772;55.586;37.730;2023-06-04T00:15:32;99482.03;;;7.21;100.00
62712;BME280;48772;55.586;37.730;2023-06-04T00:17:58;99469.94;;;7.17;100.00
62712;BME280;48772;55.586;37.730;2023-06-04T00:20:23;99476.22;;;7.16;100.00
62712;BME280;48772;55.586;37.730;2023-06-04T00:22:49;99484.25;;;7.15;100.00
62712;BME280;48772;55.586;37.730;2023-06-04T00:25:15;99464.88;;;7.02;100.00
62712;BME280;48772;55.586;37.730;2023-06-04T00:27:41;99495.94;;;7.12;100.00
62712;BME280;48772;55.586;37.730;2023-06-04T00:30:07;99479.63;;;7.06;100.00
62712;BME280;48772;55.586;37.730;2023-06-04T00:32:35;99486.38;;;6.97;100.00
62712;BME280;48772;55.586;37.730;2023-06-04T00:35:01;99503.78;;;7.01;100.00
62712;BME280;48772;55.586;37.730;2023-06-04T00:37:30;99480.31;;;6.95;100.00
62712;BME280;48772;55.586;37.730;2023-06-04T00:39:57;99496.03;;;6.98;100.00
62712;BME280;48772;55.586;37.730;2023-06-04T00:42:22;99486.78;;;6.91;100.00
62712;BME280;48772;55.586;37.730;2023-06-04T00:44:49;99491.25;;;6.91;100.00
62712;BME280;48772;55.586;37.730;2023-06-04T00:47:16;99502.50;;;6.94;100.00
62712;BME280;48772;55.586;37.730;2023-06-04T00:49:42;99491.97;;;6.80;100.00
62712;BME280;48772;55.586;37.730;2023-06-04T00:52:09;99506.50;;;6.87;100.00
62712;BME280;48772;55.586;37.730;2023-06-04T00:54:36;99490.78;;;6.71;100.00
62712;BME280;48772;55.586;37.730;2023-06-04T00:57:02;99489.94;;;6.71;100.00
62712;BME280;48772;55.586;37.730;2023-06-04T00:59:31;99508.81;;;6.79;100.00
62712;BME280;48772;55.586;37.730;2023-06-04T01:02:11;99517.50;;;6.81;100.00
62712;BME280;48772;55.586;37.730;2023-06-04T01:04:44;99512.97;;;6.83;100.00
62712;BME280;48772;55.586;37.730;2023-06-04T01:07:13;99513.50;;;6.88;100.00
62712;BME280;48772;55.586;37.730;2023-06-04T01:09:41;99517.09;;;6.87;100.00
62712;BME280;48772;55.586;37.730;2023-06-04T01:12:07;99503.13;;;6.85;100.00
62712;BME280;48772;55.586;37.730;2023-06-04T01:14:33;99514.66;;;6.84;100.00
62712;BME280;48772;55.586;37.730;2023-06-04T01:17:04;99529.06;;;6.80;100.00
62712;BME280;48772;55.586;37.730;2023-06-04T01:22:13;99520.50;;;6.76;100.00
62712;BME280;48772;55.586;37.730;2023-06-04T01:24:52;99525.03;;;6.74;100.00
62712;BME280;48772;55.586;37.730;2023-06-04T01:27:22;99533.22;;;6.84;100.00
62712;BME280;48772;55.586;37.730;2023-06-04T01:29:48;99535.13;;;6.82;100.00
62712;BME280;48772;55.586;37.730;2023-06-04T01:32:16;99533.53;;;6.79;100.00
62712;BME280;48772;55.586;37.730;2023-06-04T01:34:46;99525.78;;;6.76;100.00
62712;BME280;48772;55.586;37.730;2023-06-04T01:37:12;99538.50;;;6.84;100.00
62712;BME280;48772;55.586;37.730;2023-06-04T01:39:39;99541.16;;;6.84;100.00
62712;BME280;48772;55.586;37.730;2023-06-04T01:42:05;99536.06;;;6.81;100.00
62712;BME280;48772;55.586;37.730;2023-06-04T01:44:31;99543.63;;;6.87;100.00
62712;BME280;48772;55.586;37.730;2023-06-04T01:46:56;99526.41;;;6.80;100.00
62712;BME280;48772;55.586;37.730;2023-06-04T01:49:22;99539.47;;;6.83;100.00
62712;BME280;48772;55.586;37.730;2023-06-04T01:51:48;99557.38;;;6.92;100.00
62712;BME280;48772;55.586;37.730;2023-06-04T01:54:14;99547.84;;;6.89;100.00
62712;BME280;48772;55.586;37.730;2023-06-04T01:56:40;99561.56;;;6.96;100.00
62712;BME280;48772;55.586;37.730;2023-06-04T01:59:06;99568.47;;;6.99;100.00
62712;BME280;48772;55.586;37.730;2023-06-04T02:01:33;99565.81;;;6.99;100.00
62712;BME280;48772;55.586;37.730;2023-06-04T02:03:59;99545.19;;;6.89;100.00
62712;BME280;48772;55.586;37.730;2023-06-04T02:06:25;99536.19;;;6.92;100.00
62712;BME280;48772;55.586;37.730;2023-06-04T02:08:56;99559.97;;;7.06;100.00
62712;BME280;48772;55.586;37.730;2023-06-04T02:11:22;99560.84;;;7.07;100.00
62712;BME280;48772;55.586;37.730;2023-06-04T02:13:48;99546.19;;;7.01;100.00
62712;BME280;48772;55.586;37.730;2023-06-04T02:16:13;99574.84;;;7.21;100.00
62712;BME280;48772;55.586;37.730;2023-06-04T02:18:40;99572.19;;;7.21;100.00
62712;BME280;48772;55.586;37.730;2023-06-04T02:21:06;99579.53;;;7.30;100.00
62712;BME280;48772;55.586;37.730;2023-06-04T02:23:32;99548.75;;;7.15;100.00
62712;BME280;48772;55.586;37.730;2023-06-04T02:25:58;99569.91;;;7.29;100.00
62712;BME280;48772;55.586;37.730;2023-06-04T02:28:24;99584.19;;;7.39;100.00
62712;BME280;48772;55.586;37.730;2023-06-04T02:30:50;99584.53;;;7.47;100.00
62712;BME280;48772;55.586;37.730;2023-06-04T02:33:16;99584.22;;;7.52;100.00
62712;BME280;48772;55.586;37.730;2023-06-04T02:35:42;99577.53;;;7.46;100.00
62712;BME280;48772;55.586;37.730;2023-06-04T02:38:08;99574.16;;;7.57;100.00
62712;BME280;48772;55.586;37.730;2023-06-04T02:40:34;99597.59;;;7.75;100.00
62712;BME280;48772;55.586;37.730;2023-06-04T02:43:03;99586.47;;;7.70;100.00
62712;BME280;48772;55.586;37.730;2023-06-04T02:45:37;99613.53;;;7.75;100.00
62712;BME280;48772;55.586;37.730;2023-06-04T02:48:03;99594.94;;;7.75;100.00
62712;BME280;48772;55.586;37.730;2023-06-04T02:50:29;99619.03;;;7.97;100.00
62712;BME280;48772;55.586;37.730;2023-06-04T02:52:55;99619.03;;;7.97;100.00
62712;BME280;48772;55.586;37.730;2023-06-04T02:55:21;99612.13;;;7.95;100.00
62712;BME280;48772;55.586;37.730;2023-06-04T02:57:47;99609.88;;;8.01;100.00
62712;BME280;48772;55.586;37.730;2023-06-04T03:00:14;99631.88;;;8.16;100.00
62712;BME280;48772;55.586;37.730;2023-06-04T03:02:45;99614.34;;;8.13;100.00
62712;BME280;48772;55.586;37.730;2023-06-04T03:05:13;99624.75;;;8.29;100.00
62712;BME280;48772;55.586;37.730;2023-06-04T03:07:43;99632.19;;;8.36;100.00
62712;BME280;48772;55.586;37.730;2023-06-04T03:10:11;99633.66;;;8.40;100.00
62712;BME280;48772;55.586;37.730;2023-06-04T03:12:37;99638.75;;;8.43;100.00
62712;BME280;48772;55.586;37.730;2023-06-04T03:15:04;99637.28;;;8.39;100.00
62712;BME280;48772;55.586;37.730;2023-06-04T03:17:33;99618.38;;;8.31;100.00
62712;BME280;48772;55.586;37.730;2023-06-04T03:20:00;99634.63;;;8.39;100.00
62712;BME280;48772;55.586;37.730;2023-06-04T03:22:26;99648.31;;;8.46;100.00
62712;BME280;48772;55.586;37.730;2023-06-04T03:24:54;99629.22;;;8.41;100.00
62712;BME280;48772;55.586;37.730;2023-06-04T03:27:20;99639.16;;;8.50;100.00
62712;BME280;48772;55.586;37.730;2023-06-04T03:29:46;99660.19;;;8.65;100.00
62712;BME280;48772;55.586;37.730;2023-06-04T03:32:14;99652.75;;;8.58;100.00
62712;BME280;48772;55.586;37.730;2023-06-04T03:34:42;99659.22;;;8.66;100.00
62712;BME280;48772;55.586;37.730;2023-06-04T03:37:08;99669.16;;;8.75;100.00
62712;BME280;48772;55.586;37.730;2023-06-04T03:39:35;99676.91;;;8.78;100.00
62712;BME280;48772;55.586;37.730;2023-06-04T03:42:04;99664.38;;;8.80;100.00
62712;BME280;48772;55.586;37.730;2023-06-04T03:44:31;99668.84;;;8.80;100.00
62712;BME280;48772;55.586;37.730;2023-06-04T03:46:57;99683.66;;;8.95;100.00
62712;BME280;48772;55.586;37.730;2023-06-04T03:49:24;99653.28;;;8.86;100.00
62712;BME280;48772;55.586;37.730;2023-06-04T03:51:49;99679.78;;;9.11;100.00
62712;BME280;48772;55.586;37.730;2023-06-04T03:54:16;99669.72;;;9.04;100.00
62712;BME280;48772;55.586;37.730;2023-06-04T03:56:47;99678.53;;;9.04;100.00
62712;BME280;48772;55.586;37.730;2023-06-04T03:59:13;99676.94;;;9.25;100.00
62712;BME280;48772;55.586;37.730;2023-06-04T04:01:40;99656.63;;;9.24;100.00
62712;BME280;48772;55.586;37.730;2023-06-04T04:04:06;99682.03;;;9.28;100.00
62712;BME280;48772;55.586;37.730;2023-06-04T04:06:32;99663.31;;;9.30;100.00
62712;BME280;48772;55.586;37.730;2023-06-04T04:08:58;99662.72;;;9.37;100.00
62712;BME280;48772;55.586;37.730;2023-06-04T04:11:24;99680.28;;;9.40;100.00
62712;BME280;48772;55.586;37.730;2023-06-04T04:13:52;99694.88;;;9.58;100.00
62712;BME280;48772;55.586;37.730;2023-06-04T04:16:20;99657.31;;;9.50;100.00
62712;BME280;48772;55.586;37.730;2023-06-04T04:18:46;99680.03;;;9.77;100.00
62712;BME280;48772;55.586;37.730;2023-06-04T04:21:12;99688.03;;;9.88;100.00
62712;BME280;48772;55.586;37.730;2023-06-04T04:23:39;99695.56;;;9.83;100.00
62712;BME280;48772;55.586;37.730;2023-06-04T04:26:07;99682.03;;;9.97;100.00
62712;BME280;48772;55.586;37.730;2023-06-04T04:28:34;99695.06;;;10.24;100.00
62712;BME280;48772;55.586;37.730;2023-06-04T04:31:01;99685.72;;;10.19;100.00
62712;BME280;48772;55.586;37.730;2023-06-04T04:33:29;99695.88;;;10.25;100.00
62712;BME280;48772;55.586;37.730;2023-06-04T04:36:03;99667.72;;;9.98;100.00
62712;BME280;48772;55.586;37.730;2023-06-04T04:38:29;99693.09;;;10.15;100.00
62712;BME280;48772;55.586;37.730;2023-06-04T04:41:01;99699.31;;;10.27;100.00
62712;BME280;48772;55.586;37.730;2023-06-04T04:43:35;99696.63;;;10.38;100.00
62712;BME280;48772;55.586;37.730;2023-06-04T04:46:17;99697.34;;;10.40;100.00
62712;BME280;48772;55.586;37.730;2023-06-04T04:48:43;99701.47;;;10.44;100.00
62712;BME280;48772;55.586;37.730;2023-06-04T04:51:09;99695.19;;;10.56;100.00
62712;BME280;48772;55.586;37.730;2023-06-04T04:53:36;99715.66;;;10.77;100.00
62712;BME280;48772;55.586;37.730;2023-06-04T04:56:02;99681.81;;;10.89;100.00
62712;BME280;48772;55.586;37.730;2023-06-04T04:58:30;99668.22;;;10.92;100.00
62712;BME280;48772;55.586;37.730;2023-06-04T05:00:56;99673.59;;;10.81;100.00
62712;BME280;48772;55.586;37.730;2023-06-04T05:03:21;99695.47;;;11.06;100.00
62712;BME280;48772;55.586;37.730;2023-06-04T05:05:47;99689.41;;;10.93;100.00
62712;BME280;48772;55.586;37.730;2023-06-04T05:08:13;99682.25;;;11.05;100.00
62712;BME280;48772;55.586;37.730;2023-06-04T05:10:41;99723.94;;;11.17;100.00
62712;BME280;48772;55.586;37.730;2023-06-04T05:13:08;99713.75;;;11.22;100.00
62712;BME280;48772;55.586;37.730;2023-06-04T05:15:41;99698.97;;;11.18;100.00
62712;BME280;48772;55.586;37.730;2023-06-04T05:18:08;99709.66;;;11.18;100.00
62712;BME280;48772;55.586;37.730;2023-06-04T05:20:52;99697.72;;;11.33;100.00
62712;BME280;48772;55.586;37.730;2023-06-04T05:23:19;99691.00;;;11.38;100.00
62712;BME280;48772;55.586;37.730;2023-06-04T05:25:47;99694.50;;;11.39;100.00
62712;BME280;48772;55.586;37.730;2023-06-04T05:28:18;99699.69;;;11.51;100.00
62712;BME280;48772;55.586;37.730;2023-06-04T05:30:44;99706.59;;;11.65;100.00
62712;BME280;48772;55.586;37.730;2023-06-04T05:33:11;99712.78;;;11.86;100.00
62712;BME280;48772;55.586;37.730;2023-06-04T05:35:46;99707.50;;;11.95;100.00
62712;BME280;48772;55.586;37.730;2023-06-04T05:38:14;99686.13;;;11.95;100.00
62712;BME280;48772;55.586;37.730;2023-06-04T05:40:43;99698.13;;;11.80;100.00
62712;BME280;48772;55.586;37.730;2023-06-04T05:43:28;99709.97;;;12.28;100.00
62712;BME280;48772;55.586;37.730;2023-06-04T05:45:54;99711.47;;;12.42;100.00
62712;BME280;48772;55.586;37.730;2023-06-04T05:48:38;99707.72;;;12.24;100.00
62712;BME280;48772;55.586;37.730;2023-06-04T05:51:04;99708.13;;;11.99;100.00
62712;BME280;48772;55.586;37.730;2023-06-04T05:53:30;99714.03;;;12.23;100.00
62712;BME280;48772;55.586;37.730;2023-06-04T05:55:55;99722.03;;;11.82;100.00
62712;BME280;48772;55.586;37.730;2023-06-04T05:58:21;99712.78;;;12.06;100.00
62712;BME280;48772;55.586;37.730;2023-06-04T06:00:48;99712.78;;;12.27;100.00
62712;BME280;48772;55.586;37.730;2023-06-04T06:03:16;99713.25;;;12.62;100.00
62712;BME280;48772;55.586;37.730;2023-06-04T06:05:45;99719.53;;;12.81;100.00
62712;BME280;48772;55.586;37.730;2023-06-04T06:08:11;99718.94;;;12.78;100.00
62712;BME280;48772;55.586;37.730;2023-06-04T06:10:38;99715.38;;;12.98;100.00
62712;BME280;48772;55.586;37.730;2023-06-04T06:13:03;99715.16;;;12.80;100.00
62712;BME280;48772;55.586;37.730;2023-06-04T06:15:30;99715.25;;;12.99;100.00
62712;BME280;48772;55.586;37.730;2023-06-04T06:17:56;99717.22;;;12.67;100.00
62712;BME280;48772;55.586;37.730;2023-06-04T06:20:22;99710.59;;;12.71;100.00
62712;BME280;48772;55.586;37.730;2023-06-04T06:22:48;99695.25;;;12.64;100.00
62712;BME280;48772;55.586;37.730;2023-06-04T06:25:16;99720.25;;;13.23;100.00
62712;BME280;48772;55.586;37.730;2023-06-04T06:28:08;99719.56;;;13.40;100.00
62712;BME280;48772;55.586;37.730;2023-06-04T06:30:35;99714.22;;;13.59;100.00
62712;BME280;48772;55.586;37.730;2023-06-04T06:33:01;99730.28;;;13.50;100.00
62712;BME280;48772;55.586;37.730;2023-06-04T06:35:27;99717.75;;;13.50;100.00
62712;BME280;48772;55.586;37.730;2023-06-04T06:37:52;99698.50;;;13.16;100.00
62712;BME280;48772;55.586;37.730;2023-06-04T06:40:19;99723.81;;;13.43;100.00
62712;BME280;48772;55.586;37.730;2023-06-04T06:42:51;99721.69;;;13.94;100.00
62712;BME280;48772;55.586;37.730;2023-06-04T06:45:18;99718.59;;;13.60;100.00
62712;BME280;48772;55.586;37.730;2023-06-04T06:47:45;99704.75;;;13.36;100.00
62712;BME280;48772;55.586;37.730;2023-06-04T06:50:11;99703.34;;;13.32;100.00
62712;BME280;48772;55.586;37.730;2023-06-04T06:52:38;99700.97;;;13.86;100.00
62712;BME280;48772;55.586;37.730;2023-06-04T06:55:05;99706.53;;;14.40;100.00
62712;BME280;48772;55.586;37.730;2023-06-04T06:57:32;99713.63;;;14.13;100.00
62712;BME280;48772;55.586;37.730;2023-06-04T06:59:59;99708.97;;;14.05;100.00
62712;BME280;48772;55.586;37.730;2023-06-04T07:02:26;99710.91;;;14.41;100.00
62712;BME280;48772;55.586;37.730;2023-06-04T07:04:51;99715.69;;;14.47;100.00
62712;BME280;48772;55.586;37.730;2023-06-04T07:07:17;99695.81;;;14.40;100.00
62712;BME280;48772;55.586;37.730;2023-06-04T07:09:43;99724.47;;;14.40;100.00
62712;BME280;48772;55.586;37.730;2023-06-04T07:12:09;99716.91;;;14.62;100.00
62712;BME280;48772;55.586;37.730;2023-06-04T07:14:35;99707.69;;;14.09;100.00
62712;BME280;48772;55.586;37.730;2023-06-04T07:17:01;99722.66;;;13.93;100.00
62712;BME280;48772;55.586;37.730;2023-06-04T07:19:27;99720.81;;;14.31;100.00
62712;BME280;48772;55.586;37.730;2023-06-04T07:21:53;99711.25;;;14.65;100.00
62712;BME280;48772;55.586;37.730;2023-06-04T07:24:20;99713.47;;;15.06;100.00
62712;BME280;48772;55.586;37.730;2023-06-04T07:26:47;99726.53;;;15.19;100.00
62712;BME280;48772;55.586;37.730;2023-06-04T07:29:13;99715.25;;;15.42;100.00
62712;BME280;48772;55.586;37.730;2023-06-04T07:31:39;99710.69;;;14.98;100.00
62712;BME280;48772;55.586;37.730;2023-06-04T07:34:05;99715.44;;;14.31;100.00
62712;BME280;48772;55.586;37.730;2023-06-04T07:36:30;99705.31;;;13.97;100.00
62712;BME280;48772;55.586;37.730;2023-06-04T07:38:59;99721.28;;;14.63;100.00
62712;BME280;48772;55.586;37.730;2023-06-04T07:41:25;99720.25;;;14.18;100.00
62712;BME280;48772;55.586;37.730;2023-06-04T07:43:51;99735.22;;;14.21;100.00
62712;BME280;48772;55.586;37.730;2023-06-04T07:46:17;99733.81;;;14.26;97.71
62712;BME280;48772;55.586;37.730;2023-06-04T07:48:46;99736.31;;;14.93;91.63
62712;BME280;48772;55.586;37.730;2023-06-04T07:51:13;99708.06;;;14.79;81.99
62712;BME280;48772;55.586;37.730;2023-06-04T07:53:39;99709.81;;;14.15;86.27
62712;BME280;48772;55.586;37.730;2023-06-04T07:56:05;99731.00;;;13.99;99.21
62712;BME280;48772;55.586;37.730;2023-06-04T07:58:31;99730.13;;;14.18;100.00
62712;BME280;48772;55.586;37.730;2023-06-04T08:00:57;99703.13;;;14.84;99.91
62712;BME280;48772;55.586;37.730;2023-06-04T08:03:23;99720.88;;;15.49;92.60
62712;BME280;48772;55.586;37.730;2023-06-04T08:05:50;99716.47;;;14.67;81.00
62712;BME280;48772;55.586;37.730;2023-06-04T08:08:16;99711.19;;;14.38;84.98
62712;BME280;48772;55.586;37.730;2023-06-04T08:10:42;99731.25;;;14.34;87.10
62712;BME280;48772;55.586;37.730;2023-06-04T08:13:08;99741.84;;;14.17;93.53
62712;BME280;48772;55.586;37.730;2023-06-04T08:15:35;99714.63;;;13.93;96.57
62712;BME280;48772;55.586;37.730;2023-06-04T08:18:21;99731.50;;;14.41;79.32
62712;BME280;48772;55.586;37.730;2023-06-04T08:21:09;99724.72;;;15.46;75.26
62712;BME280;48772;55.586;37.730;2023-06-04T08:23:46;99716.34;;;15.22;62.95
62712;BME280;48772;55.586;37.730;2023-06-04T08:26:33;99710.50;;;14.73;67.85
62712;BME280;48772;55.586;37.730;2023-06-04T08:29:19;99731.84;;;14.74;68.85
62712;BME280;48772;55.586;37.730;2023-06-04T08:31:45;99701.81;;;14.52;69.70
62712;BME280;48772;55.586;37.730;2023-06-04T08:34:22;99733.94;;;14.15;71.14
62712;BME280;48772;55.586;37.730;2023-06-04T08:36:49;99713.50;;;14.14;76.53
62712;BME280;48772;55.586;37.730;2023-06-04T08:39:15;99730.13;;;14.27;76.76
62712;BME280;48772;55.586;37.730;2023-06-04T08:41:46;99729.84;;;14.21;79.27
62712;BME280;48772;55.586;37.730;2023-06-04T08:44:16;99715.03;;;14.26;79.90
62712;BME280;48772;55.586;37.730;2023-06-04T08:46:44;99709.53;;;14.18;68.89
62712;BME280;48772;55.586;37.730;2023-06-04T08:49:12;99709.69;;;14.07;63.72
62712;BME280;48772;55.586;37.730;2023-06-04T08:51:38;99740.72;;;14.38;63.27
62712;BME280;48772;55.586;37.730;2023-06-04T08:54:08;99731.56;;;14.12;56.27
62712;BME280;48772;55.586;37.730;2023-06-04T08:56:35;99728.19;;;13.91;58.55
62712;BME280;48772;55.586;37.730;2023-06-04T08:59:04;99722.66;;;14.21;50.55
62712;BME280;48772;55.586;37.730;2023-06-04T09:01:34;99740.91;;;15.00;47.82
62712;BME280;48772;55.586;37.730;2023-06-04T09:04:03;99742.44;;;15.39;49.04
62712;BME280;48772;55.586;37.730;2023-06-04T09:06:29;99729.75;;;15.22;49.19
62712;BME280;48772;55.586;37.730;2023-06-04T09:08:56;99728.31;;;15.28;51.18
62712;BME280;48772;55.586;37.730;2023-06-04T09:11:26;99763.88;;;15.12;51.50
62712;BME280;48772;55.586;37.730;2023-06-04T09:13:59;99758.22;;;14.88;53.33
62712;BME280;48772;55.586;37.730;2023-06-04T09:16:26;99745.72;;;14.60;54.22
62712;BME280;48772;55.586;37.730;2023-06-04T09:18:53;99748.19;;;14.44;57.18
62712;BME280;48772;55.586;37.730;2023-06-04T09:21:18;99736.09;;;14.31;59.16
62712;BME280;48772;55.586;37.730;2023-06-04T09:23:46;99730.25;;;14.35;60.96
62712;BME280;48772;55.586;37.730;2023-06-04T09:26:13;99740.28;;;14.43;63.47
62712;BME280;48772;55.586;37.730;2023-06-04T09:28:41;99732.31;;;14.60;66.14
62712;BME280;48772;55.586;37.730;2023-06-04T09:31:17;99747.91;;;14.47;70.26
62712;BME280;48772;55.586;37.730;2023-06-04T09:33:49;99756.66;;;14.40;69.60
62712;BME280;48772;55.586;37.730;2023-06-04T09:36:16;99751.44;;;14.38;69.93
62712;BME280;48772;55.586;37.730;2023-06-04T09:38:42;99744.00;;;14.32;75.04
62712;BME280;48772;55.586;37.730;2023-06-04T09:41:17;99761.66;;;14.25;72.94
62712;BME280;48772;55.586;37.730;2023-06-04T09:43:45;99755.41;;;14.34;74.52
62712;BME280;48772;55.586;37.730;2023-06-04T09:46:12;99761.16;;;14.58;79.69
62712;BME280;48772;55.586;37.730;2023-06-04T09:48:39;99721.09;;;14.38;73.80
62712;BME280;48772;55.586;37.730;2023-06-04T09:51:10;99751.00;;;14.52;73.54
62712;BME280;48772;55.586;37.730;2023-06-04T09:53:36;99756.34;;;14.52;73.33
62712;BME280;48772;55.586;37.730;2023-06-04T09:56:03;99748.75;;;14.38;72.08
62712;BME280;48772;55.586;37.730;2023-06-04T09:58:30;99750.09;;;14.71;71.41
62712;BME280;48772;55.586;37.730;2023-06-04T10:00:58;99751.38;;;15.03;70.08
62712;BME280;48772;55.586;37.730;2023-06-04T10:03:25;99747.09;;;15.10;66.46
62712;BME280;48772;55.586;37.730;2023-06-04T10:05:57;99757.94;;;15.45;68.36
62712;BME280;48772;55.586;37.730;2023-06-04T10:08:23;99753.66;;;15.52;64.84
62712;BME280;48772;55.586;37.730;2023-06-04T10:10:53;99721.09;;;15.73;59.57
62712;BME280;48772;55.586;37.730;2023-06-04T10:13:21;99712.59;;;16.20;58.26
62712;BME280;48772;55.586;37.730;2023-06-04T10:15:49;99746.19;;;16.85;58.49
62712;BME280;48772;55.586;37.730;2023-06-04T10:18:16;99739.16;;;16.92;56.53
62712;BME280;48772;55.586;37.730;2023-06-04T10:20:42;99737.06;;;16.09;52.49
62712;BME280;48772;55.586;37.730;2023-06-04T10:23:08;99750.38;;;15.76;53.68
62712;BME280;48772;55.586;37.730;2023-06-04T10:25:35;99725.38;;;15.48;54.29
62712;BME280;48772;55.586;37.730;2023-06-04T10:28:02;99727.78;;;15.69;57.02
62712;BME280;48772;55.586;37.730;2023-06-04T10:30:29;99729.34;;;15.71;56.45
62712;BME280;48772;55.586;37.730;2023-06-04T10:32:57;99708.88;;;15.43;57.79
62712;BME280;48772;55.586;37.730;2023-06-04T10:35:50;99740.63;;;15.57;60.09
62712;BME280;48772;55.586;37.730;2023-06-04T10:38:16;99728.78;;;15.50;52.83
62712;BME280;48772;55.586;37.730;2023-06-04T10:40:44;99723.09;;;15.53;51.81
62712;BME280;48772;55.586;37.730;2023-06-04T10:43:12;99733.22;;;15.59;49.43
62712;BME280;48772;55.586;37.730;2023-06-04T10:45:39;99722.00;;;15.81;52.66
62712;BME280;48772;55.586;37.730;2023-06-04T10:48:07;99723.38;;;15.85;51.68
62712;BME280;48772;55.586;37.730;2023-06-04T10:50:34;99708.97;;;15.86;51.30
62712;BME280;48772;55.586;37.730;2023-06-04T10:53:01;99719.03;;;16.71;49.88
62712;BME280;48772;55.586;37.730;2023-06-04T10:55:31;99732.19;;;17.23;45.56
62712;BME280;48772;55.586;37.730;2023-06-04T10:57:58;99727.78;;;16.73;46.11
62712;BME280;48772;55.586;37.730;2023-06-04T11:00:44;99720.41;;;16.31;49.97
62712;BME280;48772;55.586;37.730;2023-06-04T11:03:15;99724.56;;;15.83;51.80
62712;BME280;48772;55.586;37.730;2023-06-04T11:06:00;99721.31;;;15.44;53.31
62712;BME280;48772;55.586;37.730;2023-06-04T11:08:27;99716.72;;;15.27;58.28
62712;BME280;48772;55.586;37.730;2023-06-04T11:10:54;99708.09;;;15.06;57.17
62712;BME280;48772;55.586;37.730;2023-06-04T11:13:24;99738.22;;;15.27;59.36
62712;BME280;48772;55.586;37.730;2023-06-04T11:15:53;99745.69;;;15.33;61.34
62712;BME280;48772;55.586;37.730;2023-06-04T11:18:21;99733.47;;;15.21;62.35
62712;BME280;48772;55.586;37.730;2023-06-04T11:21:00;99751.97;;;15.24;61.85
62712;BME280;48772;55.586;37.730;2023-06-04T11:23:28;99716.78;;;15.18;62.89
62712;BME280;48772;55.586;37.730;2023-06-04T11:26:03;99747.97;;;15.55;60.53
62712;BME280;48772;55.586;37.730;2023-06-04T11:31:16;99734.78;;;15.79;61.24
62712;BME280;48772;55.586;37.730;2023-06-04T11:33:43;99712.63;;;15.85;58.91
62712;BME280;48772;55.586;37.730;2023-06-04T11:36:10;99730.16;;;16.07;52.23
62712;BME280;48772;55.586;37.730;2023-06-04T11:38:36;99731.78;;;16.25;49.26
62712;BME280;48772;55.586;37.730;2023-06-04T11:41:02;99715.66;;;15.82;47.06
62712;BME280;48772;55.586;37.730;2023-06-04T11:43:32;99715.41;;;16.54;46.80
62712;BME280;48772;55.586;37.730;2023-06-04T11:45:58;99733.66;;;16.42;48.19
62712;BME280;48772;55.586;37.730;2023-06-04T11:48:23;99728.03;;;16.18;48.96
62712;BME280;48772;55.586;37.730;2023-06-04T11:51:08;99740.22;;;15.87;49.74
62712;BME280;48772;55.586;37.730;2023-06-04T11:53:39;99718.09;;;15.93;52.05
62712;BME280;48772;55.586;37.730;2023-06-04T11:56:11;99661.09;;;15.37;52.56
62712;BME280;48772;55.586;37.730;2023-06-04T11:58:38;99705.25;;;15.52;53.77
62712;BME280;48772;55.586;37.730;2023-06-04T12:01:09;99693.75;;;15.42;53.77
62712;BME280;48772;55.586;37.730;2023-06-04T12:03:39;99679.34;;;15.34;54.22
62712;BME280;48772;55.586;37.730;2023-06-04T12:06:12;99740.09;;;15.71;54.71
62712;BME280;48772;55.586;37.730;2023-06-04T12:08:52;99715.50;;;15.66;59.14
62712;BME280;48772;55.586;37.730;2023-06-04T12:14:00;99714.88;;;15.72;56.63
62712;BME280;48772;55.586;37.730;2023-06-04T12:16:38;99740.59;;;15.92;54.92
62712;BME280;48772;55.586;37.730;2023-06-04T12:19:12;99747.19;;;16.33;52.07
62712;BME280;48772;55.586;37.730;2023-06-04T12:21:42;99734.41;;;16.53;50.42
62712;BME280;48772;55.586;37.730;2023-06-04T12:24:10;99727.38;;;16.16;49.99
62712;BME280;48772;55.586;37.730;2023-06-04T12:26:37;99731.22;;;15.96;51.62
62712;BME280;48772;55.586;37.730;2023-06-04T12:29:10;99727.38;;;15.81;52.56
62712;BME280;48772;55.586;37.730;2023-06-04T12:31:38;99756.44;;;15.60;52.48
62712;BME280;48772;55.586;37.730;2023-06-04T12:34:05;99759.22;;;15.41;53.12
62712;BME280;48772;55.586;37.730;2023-06-04T12:36:31;99774.13;;;15.36;54.00
62712;BME280;48772;55.586;37.730;2023-06-04T12:39:00;99762.25;;;15.29;53.60
62712;BME280;48772;55.586;37.730;2023-06-04T12:41:46;99735.34;;;15.11;54.40
62712;BME280;48772;55.586;37.730;2023-06-04T12:44:12;99717.88;;;14.98;54.63
62712;BME280;48772;55.586;37.730;2023-06-04T12:46:38;99732.38;;;15.14;55.73
62712;BME280;48772;55.586;37.730;2023-06-04T12:49:04;99734.75;;;15.17;54.45
62712;BME280;48772;55.586;37.730;2023-06-04T12:51:31;99742.59;;;15.28;56.29
62712;BME280;48772;55.586;37.730;2023-06-04T12:53:58;99751.34;;;15.30;53.43
62712;BME280;48772;55.586;37.730;2023-06-04T12:56:24;99755.34;;;15.53;53.60
62712;BME280;48772;55.586;37.730;2023-06-04T12:58:51;99755.66;;;15.85;53.31
62712;BME280;48772;55.586;37.730;2023-06-04T13:01:16;99741.31;;;15.94;52.43